• Join FlightAware (Why Join?)
  • Login
  • US Flag 
09:20AM EDT


 

Airport Tracker/Info


-or-


 

Live Flight TrackerFlight Track Log ✈ FSR411 ✈ 04-Jan-2014 ✈ KAPF - KCMI

Flight Track Log - Related Links

Times and Time Zones

All times are in EST time to prevent confusion due to time zone crossing. See the FSR411 flight status page for this flight to view local times or setup timezone preferences in your user account.

Time Position Orientation Groundspeed Altitude Reporting Facility
EST Latitude Longitude Course Direction KTS MPH feet Rate Location/Type
11:23AM 26.2939 -81.7250 343° North 269 310 3,800  Level Miami Center
11:24AM 26.2869 -81.8011 264° West 258 297 7,300 2,940 Climbing Miami Center
11:25AM 26.2675 -81.8814 255° West 281 323 9,700 1,320 Climbing Miami Center
11:26AM 26.2433 -81.9797 255° West 301 346 10,000 1,560 Climbing Miami Center
11:27AM 26.8080 -82.0387 336° Northwest  Level Estimated
11:27AM 26.2211 -82.0783 256° West 333 383 12,900  Level Miami Center
11:28AM 26.9172 -82.0828 343° North  Level Estimated
11:28AM 26.2217 -82.1781 270° West 333 383 14,900  Level Miami Center
11:29AM 26.2469 -82.2833 285° West 328 377 17,400 2,100 Climbing Miami Center
11:30AM 26.2847 -82.3869 292° West 344 396 19,200 1,860 Climbing Miami Center
11:31AM 26.3786 -82.4444 331° Northwest 353 406 21,200 1,920 Climbing Miami Center
11:32AM 26.4836 -82.4842 341° North 358 412 23,100 1,980 Climbing Miami Center
11:33AM 26.5903 -82.5311 339° North 387 445 25,200 2,040 Climbing Miami Center
11:34AM 26.6992 -82.5736 341° North 408 470 27,200 2,100 Climbing Miami Center
11:35AM 26.8078 -82.6231 338° Northwest 414 476 29,400 2,040 Climbing Miami Center
11:36AM 26.9186 -82.6706 339° North 425 489 31,300 1,740 Climbing Miami Center
11:37AM 27.0317 -82.7181 339° North 425 489 32,900 1,560 Climbing Miami Center
11:38AM 27.1442 -82.7681 338° Northwest 431 496 34,500 1,500 Climbing Miami Center
11:39AM 27.2447 -82.8106 339° North 424 488 35,900 1,380 Climbing Miami Center
11:40AM 27.3758 -82.8686 339° North 440 506 37,300 1,020 Climbing Miami Center
11:41AM 27.4947 -82.9217 338° Northwest 450 518 38,000 300 Climbing Miami Center
11:42AM 27.6033 -82.9697 339° North 455 524 38,000 540 Level Miami Center
11:44AM 27.9181 -83.1086 339° North 488 562 39,900 540 Climbing Jacksonville Center
11:45AM 28.0494 -83.1419 347° North 475 547 40,000  Climbing Jacksonville Center
11:46AM 28.1683 -83.1422 360° North 471 542 40,000  Level Jacksonville Center
11:47AM 28.2956 -83.1825 344° North 476 548 40,000  Level Jacksonville Center
11:48AM 28.4292 -83.2372 340° North 470 541 40,000  Level Jacksonville Center
11:49AM 28.5542 -83.2872 341° North 465 535 40,000  Level Jacksonville Center
11:50AM 28.6814 -83.3350 342° North 465 535 40,000  Level Jacksonville Center
11:51AM 28.8083 -83.3808 342° North 470 541 40,000  Level Jacksonville Center
11:52AM 28.9336 -83.4311 341° North 475 547 40,000  Level Jacksonville Center
11:53AM 29.0606 -83.4794 342° North 475 547 40,000  Level Jacksonville Center
11:54AM 29.1856 -83.5278 341° North 475 547 40,000  Level Jacksonville Center
11:55AM 29.3106 -83.5736 342° North 475 547 40,000  Level Jacksonville Center
11:56AM 29.4356 -83.6222 341° North 475 547 40,000  Level Jacksonville Center
11:57AM 29.5606 -83.6708 341° North 470 541 40,000  Level Jacksonville Center
11:58AM 29.6856 -83.7197 341° North 470 541 40,000  Level Jacksonville Center
11:59AM 29.7833 -83.7564 342° North 465 535 40,000  Level Jacksonville Center
12:00PM 29.9186 -83.8103 341° North 465 535 40,000  Level Jacksonville Center
12:01PM 30.0436 -83.8597 341° North 465 535 40,000  Level Jacksonville Center
12:02PM 30.1706 -83.9064 342° North 465 535 40,000  Level Jacksonville Center
12:03PM 30.2914 -83.9533 341° North 465 535 40,000  Level Jacksonville Center
12:04PM 30.4142 -84.0056 340° North 465 535 40,000  Level Jacksonville Center
12:05PM 30.5514 -84.0578 342° North 465 535 40,000  Level Jacksonville Center
12:06PM 30.6492 -84.0950 342° North 465 535 40,000  Level Jacksonville Center
12:07PM 30.7844 -84.1500 341° North 465 535 40,000  Level Jacksonville Center
12:08PM 30.9072 -84.1978 342° North 465 535 40,000  Level Jacksonville Center
12:09PM 31.0319 -84.2478 341° North 465 535 40,000  Level Jacksonville Center
12:10PM 31.1544 -84.2981 341° North 465 535 40,000  Level Jacksonville Center
12:11PM 31.2772 -84.3461 342° North 465 535 40,000  Level Jacksonville Center
12:13PM 31.4767 -84.4261 341° North 441 507 40,000  Level Atlanta Center
12:14PM 31.6019 -84.4778 341° North 453 521 40,000  Level Atlanta Center
12:15PM 31.7247 -84.5272 341° North 458 527 40,000  Level Atlanta Center
12:16PM 31.8497 -84.5767 341° North 468 539 40,000  Level Atlanta Center
12:17PM 31.9728 -84.6264 341° North 468 539 40,000  Level Atlanta Center
12:18PM 32.0956 -84.6786 340° North 468 539 40,000  Level Atlanta Center
12:19PM 32.2186 -84.7286 341° North 468 539 40,000  Level Atlanta Center
12:20PM 32.3414 -84.7789 341° North 468 539 40,000  Level Atlanta Center
12:21PM 32.4622 -84.8292 341° North 463 533 40,000  Level Atlanta Center
12:22PM 32.5911 -84.8769 343° North 463 533 40,000  Level Atlanta Center
12:23PM 32.7203 -84.9325 340° North 468 539 40,000  Level Atlanta Center
12:24PM 32.8408 -84.9906 338° Northwest 475 547 40,000  Level Atlanta Center
12:25PM 32.9617 -85.0367 342° North 470 541 40,000  Level Atlanta Center
12:26PM 33.0842 -85.0900 340° North 465 535 40,000  Level Atlanta Center
12:27PM 33.1944 -85.1361 341° North 465 535 40,000  Level Atlanta Center
12:28PM 33.3172 -85.1872 341° North 465 535 40,000  Level Atlanta Center
12:29PM 33.4419 -85.2414 340° North 471 542 40,000  Level Atlanta Center
12:30PM 33.5625 -85.2878 342° North 465 535 40,000  Level Atlanta Center
12:31PM 33.6956 -85.3447 340° North 459 528 40,000  Level Atlanta Center
12:32PM 33.8161 -85.3964 340° North 459 528 40,000  Level Atlanta Center
12:33PM 33.9364 -85.4483 340° North 454 522 40,000  Level Atlanta Center
12:34PM 34.0550 -85.4956 342° North 454 522 40,000  Level Atlanta Center
12:35PM 34.1733 -85.5478 340° North 454 522 40,000  Level Atlanta Center
12:36PM 34.2936 -85.5978 341° North 449 517 40,000  Level Atlanta Center
12:37PM 34.3994 -85.6450 340° North 449 517 40,000  Level Atlanta Center
12:38PM 34.5178 -85.6975 340° North 444 511 40,000  Level Atlanta Center
12:39PM 34.6381 -85.7481 341° North 449 517 40,000  Level Atlanta Center
12:40PM 34.7583 -85.8011 340° North 449 517 40,000  Level Atlanta Center
12:41PM 34.8911 -85.8569 341° North 449 517 40,000  Level Atlanta Center
12:42PM 34.9969 -85.9075 339° North 449 517 40,000  Level Atlanta Center
12:44PM 35.2406 -86.0100 341° North 455 524 40,000  Level Memphis Center
12:45PM 35.3581 -86.0625 340° North 451 519 40,000  Level Memphis Center
12:46PM 35.4772 -86.1147 340° North 451 519 40,000  Level Memphis Center
12:47PM 35.6189 -86.1775 340° North 450 518 40,000  Level Memphis Center
12:48PM 35.7372 -86.2311 340° North 452 520 40,000  Level Memphis Center
12:49PM 35.8561 -86.2842 340° North 451 519 40,000  Level Memphis Center
12:50PM 35.9761 -86.3378 340° North 452 520 40,000  Level Memphis Center
12:51PM 36.0936 -86.3917 340° North 450 518 40,000  Level Memphis Center
12:52PM 36.2097 -86.4439 340° North 445 512 40,000  Level Memphis Center
12:53PM 36.3442 -86.5050 340° North 441 507 40,000  Level Memphis Center
12:54PM 36.4600 -86.5583 340° North 444 511 40,000  Level Memphis Center
12:55PM 36.5767 -86.6103 340° North 446 513 40,000  Level Memphis Center
12:56PM 36.6936 -86.6650 339° North 446 513 40,000  Level Memphis Center
12:57PM 36.8122 -86.7186 340° North 449 517 40,000  Level Memphis Center
12:58PM 36.9175 -86.7967 329° Northwest 449 517 40,000  Level Indianapolis Center
01:00PM 37.0219 -86.9108 319° Northwest 429 494 40,000  Level Memphis Center
01:01PM 37.1142 -87.0083 320° Northwest 430 495 40,000 -60 Level Memphis Center
01:01PM 37.1900 -87.0867 321° Northwest 427 491 39,900 -600 Descending Indianapolis Center
01:02PM 37.2822 -87.1831 320° Northwest 428 493 38,900 -1,260 Descending Indianapolis Center
01:04PM 37.3894 -87.2989 319° Northwest 434 499 37,400 -1,680 Descending Indianapolis Center
01:05PM 37.4800 -87.4000 318° Northwest 431 496 35,500 -1,620 Descending Indianapolis Center
01:06PM 37.5811 -87.4878 325° Northwest 444 511 34,200 -1,320 Descending Indianapolis Center
01:07PM 37.7039 -87.5278 346° North 452 520 32,900 -1,260 Descending Indianapolis Center
01:08PM 37.8283 -87.5669 346° North 457 526 31,700 -1,020 Descending Indianapolis Center
01:09PM 37.9519 -87.6058 346° North 453 521 30,800 -960 Descending Indianapolis Center
01:10PM 38.0758 -87.6439 346° North 453 521 29,800 -1,020 Descending Indianapolis Center
01:11PM 38.2008 -87.6836 346° North 455 524 28,800 -1,020 Descending Indianapolis Center
01:12PM 38.3250 -87.7225 346° North 454 522 27,700 -1,440 Descending Indianapolis Center
01:13PM 38.4469 -87.7606 346° North 448 516 25,900 -1,680 Descending Indianapolis Center
01:14PM 38.5650 -87.7994 346° North 437 503 24,300 -1,560 Descending Indianapolis Center
01:15PM 38.6831 -87.8367 346° North 434 499 22,700 -1,740 Descending Indianapolis Center
01:16PM 38.8211 -87.8803 346° North 424 488 20,800 -1,740 Descending Indianapolis Center
01:17PM 38.9336 -87.9156 346° North 415 478 19,200 -1,500 Descending Indianapolis Center
01:18PM 39.0428 -87.9517 346° North 404 465 17,800 -1,440 Descending Indianapolis Center
01:19PM 39.1506 -87.9872 346° North 400 460 16,300 -1,440 Descending Indianapolis Center
01:20PM 39.2775 -88.0272 346° North 392 451 14,600 -1,380 Descending Indianapolis Center
01:21PM 39.3800 -88.0608 346° North 378 435 13,200 -1,380 Descending Indianapolis Center
01:22PM 39.4772 -88.0919 346° North 366 421 11,800 -1,380 Descending Indianapolis Center
01:23PM 39.5647 -88.1217 345° North 340 391 10,400 -1,440 Descending Indianapolis Center
01:24PM 39.6428 -88.1331 354° North 315 362 8,900 -1,260 Descending Indianapolis Center
01:25PM 39.7192 -88.1225 North 293 337 7,900 -1,260 Descending Indianapolis Center
01:26PM 39.8036 -88.1103 North 266 306 6,400 -1,020 Descending Indianapolis Center
01:28PM 39.9067 -88.1083 North 259 298 5,500 -660 Descending Chicago Center
01:30PM 40.0333 -88.2667 346° North  Level FlightAware Approximate
01:37PM 40.0388 -88.2778 346° North  Level Estimated
01:38PM 40.0388 -88.2778 346° North  Level Estimated
01:39PM 40.0388 -88.2778 346° North  Level Estimated